createdAt,value
2019-04-03T00:03:28.719Z,76682.97
2019-04-03T00:08:43.522Z,76679.97
2019-04-03T00:14:00.886Z,76687.96
2019-04-03T00:19:07.731Z,76687.96
2019-04-03T00:24:22.670Z,76710.92
2019-04-03T00:29:41.032Z,76726.90
2019-04-03T00:35:23.606Z,76719.91
2019-04-03T00:40:38.537Z,76723.91
2019-04-03T00:45:54.018Z,76739.88
2019-04-03T00:51:09.387Z,76730.89
2019-04-03T00:56:24.796Z,76737.88
2019-04-03T01:01:39.549Z,76739.88
2019-04-03T01:06:58.626Z,76744.87
2019-04-03T01:12:14.268Z,76751.86
2019-04-03T01:17:44.008Z,76761.84
2019-04-03T01:22:56.768Z,76777.81
2019-04-03T01:28:11.297Z,76794.79
2019-04-03T01:33:25.471Z,76798.78
2019-04-03T01:38:36.955Z,76802.78
2019-04-03T01:43:48.499Z,76801.78
2019-04-03T01:49:05.786Z,76806.77
2019-04-03T01:54:19.463Z,76822.75
2019-04-03T01:59:32.945Z,76812.77
2019-04-03T02:04:44.724Z,76815.76
2019-04-03T02:09:54.943Z,76829.73
2019-04-03T02:15:08.575Z,76835.73
2019-04-03T02:20:19.809Z,76839.72
2019-04-03T02:25:32.263Z,76853.70
2019-04-03T02:30:46.898Z,76853.70
2019-04-03T02:36:00.356Z,76857.69
2019-04-03T02:41:09.010Z,76850.70
2019-04-03T02:46:19.604Z,76861.69
2019-04-03T02:51:32.040Z,76879.66
2019-04-03T02:56:44.554Z,76882.65
2019-04-03T03:01:57.305Z,76889.64
2019-04-03T03:07:35.850Z,76896.63
2019-04-03T03:12:53.243Z,76904.62
2019-04-03T03:18:09.877Z,76915.59
2019-04-03T03:23:23.111Z,76927.58
2019-04-03T03:28:34.972Z,76933.57
2019-04-03T03:33:51.924Z,76927.58
2019-04-03T03:39:10.707Z,76930.58
2019-04-03T03:44:21.576Z,76931.58
2019-04-03T03:50:07.827Z,76927.58
2019-04-03T03:55:24.225Z,76925.58
2019-04-03T04:00:34.296Z,76921.59
2019-04-03T04:05:49.000Z,76929.58
2019-04-03T04:11:06.152Z,76933.57
2019-04-03T04:16:23.537Z,76933.57
2019-04-03T04:21:33.689Z,76929.58
2019-04-03T04:27:04.680Z,76923.59
2019-04-03T04:32:17.623Z,76911.61
2019-04-03T04:37:30.730Z,76913.60
2019-04-03T04:42:43.597Z,76909.61
2019-04-03T04:47:52.984Z,76907.61
2019-04-03T04:53:06.382Z,76907.61
2019-04-03T04:58:36.261Z,76906.61
2019-04-03T05:03:45.225Z,76901.63
2019-04-03T05:09:15.784Z,76902.62
2019-04-03T05:15:04.495Z,76899.63
2019-04-03T05:20:30.751Z,76898.63
2019-04-03T05:25:41.060Z,76900.63
2019-04-03T05:30:56.584Z,76902.62
2019-04-03T05:36:10.631Z,76896.63
2019-04-03T05:41:27.695Z,76897.63
2019-04-03T05:46:36.738Z,76891.64
2019-04-03T05:51:48.524Z,76879.66
2019-04-03T05:57:19.810Z,76867.67
2019-04-03T06:02:28.876Z,76865.67
2019-04-03T06:07:44.926Z,76867.67
2019-04-03T06:12:57.499Z,76868.67
2019-04-03T06:18:13.665Z,76869.67
2019-04-03T06:23:28.621Z,76852.70
2019-04-03T06:28:42.543Z,76855.69
2019-04-03T06:33:57.657Z,76853.70
2019-04-03T06:39:14.435Z,76839.72
2019-04-03T06:44:31.732Z,76841.72
2019-04-03T06:49:40.997Z,76839.72
2019-04-03T06:54:52.914Z,76834.73
2019-04-03T07:00:03.977Z,76823.74
2019-04-03T07:05:12.340Z,76806.77
2019-04-03T07:10:25.734Z,76797.78
2019-04-03T07:15:34.709Z,76796.78
2019-04-03T07:20:45.176Z,76783.80
2019-04-03T07:25:56.033Z,76755.85
2019-04-03T07:31:09.928Z,76730.89
2019-04-03T07:36:27.902Z,76708.92
2019-04-03T07:41:40.870Z,76691.95
2019-04-03T07:46:50.519Z,76717.91
2019-04-03T07:52:03.337Z,76711.92
2019-04-03T07:57:16.677Z,76695.95
2019-04-03T08:02:27.407Z,76669.98
2019-04-03T08:07:40.980Z,76658.01
2019-04-03T08:13:12.566Z,76657.01
2019-04-03T08:18:26.401Z,76637.05
2019-04-03T08:23:36.743Z,76646.03
2019-04-03T08:28:46.887Z,76639.04
2019-04-03T08:33:59.972Z,76647.03
2019-04-03T08:39:16.074Z,76644.03
2019-04-03T08:44:23.559Z,76669.98
2019-04-03T08:49:37.504Z,76661.00
2019-04-03T08:54:49.342Z,76636.05
2019-04-03T09:00:02.092Z,76616.08
2019-04-03T09:05:15.096Z,76604.09
2019-04-03T09:10:27.483Z,76594.11
2019-04-03T09:15:36.213Z,76532.22
2019-04-03T09:20:45.889Z,76538.20
2019-04-03T09:26:02.619Z,76512.25
2019-04-03T09:31:17.131Z,76479.30
2019-04-03T09:36:30.147Z,76490.28
2019-04-03T09:41:47.235Z,76513.25
2019-04-03T09:46:58.441Z,76527.23
2019-04-03T09:52:13.050Z,76528.22
2019-04-03T09:57:26.810Z,76532.22
2019-04-03T10:02:37.951Z,76533.22
2019-04-03T10:07:47.290Z,76525.23
2019-04-03T10:13:00.446Z,76542.20
2019-04-03T10:18:10.076Z,76530.22
2019-04-03T10:23:21.693Z,76504.27
2019-04-03T10:28:32.950Z,76483.30
2019-04-03T10:33:47.243Z,76472.31
2019-04-03T10:38:58.353Z,76431.39
2019-04-03T10:44:06.730Z,76418.41
2019-04-03T10:49:18.911Z,76378.47
2019-04-03T10:54:28.705Z,76294.62
2019-04-03T10:59:37.061Z,76355.52
2019-04-03T11:04:50.400Z,76367.49
2019-04-03T11:10:40.454Z,76337.55
2019-04-03T11:16:15.785Z,76247.70
2019-04-03T11:21:29.096Z,76247.70
2019-04-03T11:26:45.306Z,76272.66
2019-04-03T11:32:00.578Z,76293.62
2019-04-03T11:37:09.546Z,76254.69
2019-04-03T11:42:24.334Z,76303.60
2019-04-03T11:47:27.884Z,76264.67
2019-04-03T11:52:42.271Z,76218.75
2019-04-03T11:57:52.782Z,76250.69
2019-04-03T12:03:03.940Z,76172.83
2019-04-03T12:08:13.059Z,76102.95
2019-04-03T12:13:27.958Z,76128.91
2019-04-03T12:18:38.960Z,76119.92
2019-04-03T12:23:46.625Z,76168.83
2019-04-03T12:28:55.973Z,76100.95
2019-04-03T12:34:11.804Z,76155.86
2019-04-03T12:39:34.738Z,76163.84
2019-04-03T12:44:54.036Z,76236.72
2019-04-03T12:50:03.087Z,76270.66
2019-04-03T12:55:13.332Z,76281.64
2019-04-03T13:00:25.194Z,76314.58
2019-04-03T13:05:39.578Z,76310.59
2019-04-03T13:10:53.795Z,76284.63
2019-04-03T13:16:12.554Z,76286.63
2019-04-03T13:21:47.033Z,76226.73
2019-04-03T13:27:01.214Z,76276.65
2019-04-03T13:32:38.320Z,76164.84
2019-04-03T13:37:46.398Z,76196.78
2019-04-03T13:43:00.746Z,76197.78
2019-04-03T13:48:15.472Z,76184.80
2019-04-03T13:53:46.344Z,76192.80
2019-04-03T13:59:03.777Z,76168.83
2019-04-03T14:04:15.275Z,76179.81
2019-04-03T14:09:30.054Z,76129.91
2019-04-03T14:14:39.135Z,76088.98
2019-04-03T14:19:54.060Z,76080.98
2019-04-03T14:25:18.477Z,76107.94
2019-04-03T14:30:21.566Z,76120.92
2019-04-03T14:35:48.777Z,76108.94
2019-04-03T14:40:48.478Z,76152.86
2019-04-03T14:45:56.854Z,76135.89
2019-04-03T14:51:12.174Z,76114.93
2019-04-03T14:56:27.132Z,76134.89
2019-04-03T15:01:57.007Z,76171.83
2019-04-03T15:07:09.435Z,76182.81
2019-04-03T15:12:18.472Z,76190.80
2019-04-03T15:17:34.116Z,76187.80
2019-04-03T15:22:45.081Z,76174.83
2019-04-03T15:28:00.459Z,76145.88
2019-04-03T15:33:18.759Z,76159.84
2019-04-03T15:38:29.404Z,76162.84
2019-04-03T15:44:00.595Z,76174.83
2019-04-03T15:49:15.332Z,76177.82
2019-04-03T15:54:32.917Z,76204.77
2019-04-03T15:59:39.919Z,76210.77
2019-04-03T16:04:58.462Z,76204.77
2019-04-03T16:10:11.847Z,76232.72
2019-04-03T16:15:24.667Z,76242.70
2019-04-03T16:20:40.629Z,76249.69
2019-04-03T16:25:52.400Z,76260.67
2019-04-03T16:31:06.792Z,76271.66
2019-04-03T16:36:18.606Z,76265.66
2019-04-03T16:41:32.496Z,76246.70
2019-04-03T16:46:42.611Z,76232.72
2019-04-03T16:51:57.346Z,76244.70
2019-04-03T16:57:14.034Z,76252.69
2019-04-03T17:02:25.417Z,76256.68
2019-04-03T17:07:37.696Z,76271.66
2019-04-03T17:12:50.055Z,76271.66
2019-04-03T17:18:02.597Z,76272.66
2019-04-03T17:23:14.148Z,76279.64
2019-04-03T17:29:05.414Z,76270.66
2019-04-03T17:34:12.642Z,76276.65
2019-04-03T17:39:21.877Z,76291.63
2019-04-03T17:44:34.449Z,76295.61
2019-04-03T17:49:47.103Z,76287.63
2019-04-03T17:54:58.008Z,76296.61
2019-04-03T18:00:05.889Z,76289.63
2019-04-03T18:05:18.434Z,76311.59
2019-04-03T18:10:27.224Z,76335.55
2019-04-03T18:15:36.445Z,76327.56
2019-04-03T18:20:46.181Z,76324.56
2019-04-03T18:26:00.746Z,76324.56
2019-04-03T18:31:15.752Z,76321.57
2019-04-03T18:36:31.228Z,76326.56
2019-04-03T18:41:45.877Z,76333.55
2019-04-03T18:46:55.883Z,76334.55
2019-04-03T18:52:07.777Z,76345.53
2019-04-03T18:57:20.524Z,76366.49
2019-04-03T19:02:34.315Z,76367.49
2019-04-03T19:07:48.902Z,76367.49
2019-04-03T19:13:02.223Z,76372.48
2019-04-03T19:18:19.360Z,76369.48
2019-04-03T19:24:00.876Z,76365.50
2019-04-03T19:29:11.047Z,76364.50
2019-04-03T19:34:21.620Z,76382.47
2019-04-03T19:39:32.944Z,76392.45
2019-04-03T19:44:41.813Z,76414.41
2019-04-03T19:49:54.727Z,76424.39
2019-04-03T19:55:09.824Z,76440.38
2019-04-03T20:00:19.306Z,76456.34
2019-04-03T20:05:31.941Z,76454.34
2019-04-03T20:10:49.212Z,76450.35
2019-04-03T20:16:03.284Z,76436.38
2019-04-03T20:21:10.064Z,76436.38
2019-04-03T20:26:22.202Z,76447.36
2019-04-03T20:31:40.862Z,76450.35
2019-04-03T20:36:54.719Z,76444.36
2019-04-03T20:42:08.140Z,76444.36
2019-04-03T20:47:22.146Z,76454.34
2019-04-03T20:52:31.299Z,76463.33
2019-04-03T20:58:05.858Z,76464.33
2019-04-03T21:03:14.369Z,76470.31
2019-04-03T21:08:27.224Z,76480.30
2019-04-03T21:13:36.191Z,76498.27
2019-04-03T21:19:06.412Z,76496.27
2019-04-03T21:24:19.241Z,76490.28
2019-04-03T21:29:30.429Z,76485.30
2019-04-03T21:34:43.025Z,76477.30
2019-04-03T21:40:04.492Z,76466.33
2019-04-03T21:45:22.130Z,76446.36
2019-04-03T21:50:35.223Z,76453.34
2019-04-03T21:55:51.131Z,76468.32
2019-04-03T22:01:27.041Z,76492.28
2019-04-03T22:06:37.231Z,76504.27
2019-04-03T22:11:45.560Z,76516.24
2019-04-03T22:16:56.256Z,76536.21
2019-04-03T22:22:10.925Z,76536.21
2019-04-03T22:27:25.207Z,76530.22
2019-04-03T22:32:36.774Z,76529.22
2019-04-03T22:37:49.503Z,76550.19
2019-04-03T22:43:00.196Z,76569.16
2019-04-03T22:48:11.295Z,76586.13
2019-04-03T22:53:24.225Z,76569.16
2019-04-03T22:58:36.422Z,76565.16
2019-04-03T23:03:49.413Z,76602.10
2019-04-03T23:08:56.644Z,76626.06
2019-04-03T23:14:15.714Z,76650.02
2019-04-03T23:19:32.466Z,76664.00
2019-04-03T23:24:45.541Z,76664.00
2019-04-03T23:30:00.361Z,76662.00
2019-04-03T23:35:15.074Z,76664.00
2019-04-03T23:40:27.704Z,76659.01
2019-04-03T23:45:43.574Z,76656.02
2019-04-03T23:50:57.499Z,76648.02
2019-04-03T23:56:09.169Z,76649.02
